Time;durP1;ratioP1;P1;durP2;ratioP2;P2;SDS_P1;SDS_P2;PMS_P1;PMS_P2;Temp;Humidity;BMP_temperature;BMP_pressure;BME280_temperature;BME280_humidity;BME280_pressure;Samples;Min_cycle;Max_cycle;Signal;HPM_P1;HPM_P2
2022/10/22 00:00:08;;;;;;;82.18;77.53;;;;;;;15.07;68.00;102072.13;5021388;28;102974;-50
2022/10/22 00:02:35;;;;;;;77.28;72.90;;;;;;;15.06;67.87;102066.88;5033010;27;102591;-50
2022/10/22 00:05:04;;;;;;;74.53;70.07;;;;;;;15.07;67.61;102065.78;5033982;27;104933;-50
2022/10/22 00:07:32;;;;;;;83.28;78.40;;;;;;;15.08;67.92;102065.53;5023974;27;102542;-50
2022/10/22 00:09:59;;;;;;;85.03;80.28;;;;;;;15.08;67.89;102061.97;5035193;27;102327;-52
2022/10/22 00:12:26;;;;;;;77.28;72.85;;;;;;;15.06;68.12;102059.47;5012317;28;102167;-50
2022/10/22 00:14:53;;;;;;;75.55;71.32;;;;;;;15.06;67.81;102058.66;5003410;28;103696;-50
2022/10/22 00:17:19;;;;;;;83.70;79.20;;;;;;;15.06;67.95;102067.72;5006174;28;102186;-50
2022/10/22 00:19:46;;;;;;;77.40;72.97;;;;;;;15.06;68.05;102062.22;5007969;28;102597;-50
2022/10/22 00:22:14;;;;;;;84.60;79.80;;;;;;;15.05;67.86;102059.75;5004023;28;102281;-51
2022/10/22 00:24:42;;;;;;;76.57;72.35;;;;;;;15.05;67.50;102062.50;5010178;28;104071;-50
2022/10/22 00:27:10;;;;;;;78.00;73.63;;;;;;;15.04;67.93;102061.69;5015001;28;102400;-50
2022/10/22 00:29:37;;;;;;;74.63;70.38;;;;;;;15.07;67.40;102055.66;5013178;28;102272;-50
2022/10/22 00:32:05;;;;;;;76.35;72.18;;;;;;;15.07;67.99;102054.81;5015461;28;102254;-51
2022/10/22 00:34:32;;;;;;;81.80;77.00;;;;;;;15.07;67.80;102052.06;5013706;28;103958;-50
2022/10/22 00:36:59;;;;;;;77.32;72.85;;;;;;;15.06;68.17;102051.25;5015103;28;101949;-50
2022/10/22 00:39:26;;;;;;;74.72;70.18;;;;;;;15.07;67.63;102047.44;4999480;28;102558;-50
2022/10/22 00:41:56;;;;;;;73.03;68.93;;;;;;;15.05;67.92;102046.88;5014813;28;102260;-50
2022/10/22 00:45:03;;;;;;;73.15;69.00;;;;;;;15.06;68.03;102044.94;5004678;28;103838;-50
2022/10/22 00:47:37;;;;;;;77.65;73.38;;;;;;;15.06;67.92;102043.03;4995314;28;102270;-51
2022/10/22 00:50:05;;;;;;;;;;;;;;;15.04;68.14;102037.00;5012188;28;102734;-50
2022/10/22 00:52:33;;;;;;;87.28;82.43;;;;;;;15.05;68.12;102035.91;5014572;28;102414;-50
2022/10/22 00:55:00;;;;;;;78.22;73.88;;;;;;;15.04;67.88;102023.31;5014110;28;104006;-51
2022/10/22 00:57:28;;;;;;;65.78;62.03;;;;;;;15.03;67.82;102018.06;5014882;28;102549;-50
2022/10/22 00:59:56;;;;;;;73.47;69.45;;;;;;;15.05;67.92;102024.13;5012978;28;102066;-50
2022/10/22 01:02:22;;;;;;;77.25;72.95;;;;;;;15.04;67.86;102023.31;5004956;28;102546;-50
2022/10/22 01:04:49;;;;;;;72.93;68.88;;;;;;;15.04;68.12;102022.47;5012223;28;103947;-51
2022/10/22 01:07:19;;;;;;;76.93;72.68;;;;;;;15.06;67.96;102020.28;5013733;28;102335;-51
2022/10/22 01:09:57;;;;;;;72.18;68.10;;;;;;;15.03;67.99;102021.63;5014051;28;102180;-50
2022/10/22 01:12:33;;;;;;;75.20;70.97;;;;;;;15.03;68.02;102016.16;5015510;28;102261;-50
2022/10/22 01:15:13;;;;;;;75.50;71.43;;;;;;;15.03;68.17;102010.66;5008941;28;104036;-51
2022/10/22 01:17:49;;;;;;;74.63;70.50;;;;;;;15.03;67.92;102013.41;5014721;28;102307;-51
2022/10/22 01:20:39;;;;;;;67.85;64.15;;;;;;;15.05;68.04;102013.97;5012595;28;102358;-50
2022/10/22 01:23:20;;;;;;;75.25;70.97;;;;;;;15.03;68.05;102018.06;4996375;28;102473;-50
2022/10/22 01:25:56;;;;;;;75.07;70.90;;;;;;;15.03;67.67;102010.66;4996291;28;104091;-51
2022/10/22 01:28:41;;;;;;;71.80;67.82;;;;;;;15.03;68.08;102007.91;5014094;28;102041;-51
2022/10/22 01:31:10;;;;;;;69.35;65.47;;;;;;;15.02;68.26;102003.53;4995525;28;102704;-50
2022/10/22 01:33:39;;;;;;;68.68;64.78;;;;;;;15.03;68.28;102005.19;5011248;28;102085;-51
2022/10/22 01:36:06;;;;;;;72.00;68.03;;;;;;;15.03;67.93;102005.19;5008544;28;104064;-51
2022/10/22 01:38:33;;;;;;;69.03;65.10;;;;;;;15.02;67.94;102003.53;5004351;28;102316;-50
2022/10/22 01:41:01;;;;;;;72.28;68.10;;;;;;;15.01;68.20;101996.41;4993354;28;102158;-50
2022/10/22 01:43:28;;;;;;;74.43;70.32;;;;;;;15.02;68.28;101998.06;5011155;27;102425;-51
2022/10/22 01:45:59;;;;;;;72.50;68.53;;;;;;;15.02;68.08;101991.75;5013439;28;104190;-50
2022/10/22 01:48:38;;;;;;;71.35;67.45;;;;;;;15.02;68.24;101995.31;5014080;28;102073;-50
2022/10/22 01:51:18;;;;;;;71.50;67.50;;;;;;;15.02;68.13;101992.56;5017030;28;102245;-50
2022/10/22 01:53:52;;;;;;;67.22;63.42;;;;;;;15.01;68.01;101990.94;5018416;28;102268;-50
2022/10/22 01:56:35;;;;;;;70.07;66.20;;;;;;;15.01;68.00;101992.84;5016711;28;103445;-50
2022/10/22 01:59:06;;;;;;;69.55;65.65;;;;;;;15.02;67.78;101997.25;5016727;28;102265;-50
2022/10/22 02:01:46;;;;;;;71.13;67.10;;;;;;;15.02;68.19;101997.25;5001452;28;102406;-50
2022/10/22 02:04:19;;;;;;;70.38;66.45;;;;;;;15.02;68.08;101991.75;4998625;28;102205;-50
2022/10/22 02:06:50;;;;;;;66.75;63.05;;;;;;;15.01;68.29;101990.94;4996407;28;104129;-50
2022/10/22 02:09:19;;;;;;;68.72;64.82;;;;;;;15.02;68.37;101987.09;4998420;28;101847;-50
2022/10/22 02:11:48;;;;;;;73.38;69.40;;;;;;;15.01;68.08;101990.94;5000277;28;102271;-50
2022/10/22 02:14:18;;;;;;;67.85;63.97;;;;;;;15.00;68.05;101989.28;4998983;28;102323;-50
2022/10/22 02:16:49;;;;;;;64.80;61.17;;;;;;;15.00;68.27;101983.81;4996360;28;104118;-50
2022/10/22 02:19:23;;;;;;;65.60;61.90;;;;;;;15.00;68.14;101978.34;4998295;28;102366;-50
2022/10/22 02:21:49;;;;;;;69.68;65.80;;;;;;;15.01;68.28;101968.19;5010454;28;101967;-50
2022/10/22 02:24:17;;;;;;;65.40;61.75;;;;;;;15.00;68.10;101963.78;5017745;28;102282;-51
2022/10/22 02:26:52;;;;;;;66.83;63.23;;;;;;;15.02;68.09;101964.34;5015780;28;103613;-51
2022/10/22 02:29:24;;;;;;;69.65;65.82;;;;;;;15.00;68.10;101961.03;5016311;28;102349;-50
2022/10/22 02:31:56;;;;;;;64.55;61.03;;;;;;;14.99;68.42;101954.72;5015696;28;102215;-50
2022/10/22 02:34:28;;;;;;;72.43;68.53;;;;;;;15.00;68.00;101952.81;5018032;28;102559;-50
2022/10/22 02:36:56;;;;;;;68.32;64.60;;;;;;;15.00;68.06;101950.06;5015977;28;103950;-50
2022/10/22 02:39:22;;;;;;;67.75;64.05;;;;;;;14.99;68.21;101943.75;5015599;28;102407;-50
2022/10/22 02:41:48;;;;;;;68.85;65.10;;;;;;;15.00;68.37;101944.59;5016002;28;101933;-50
2022/10/22 02:44:20;;;;;;;70.93;67.00;;;;;;;15.00;68.13;101945.44;5017368;28;102276;-51
2022/10/22 02:46:47;;;;;;;64.95;61.40;;;;;;;15.00;68.21;101948.19;5008234;28;104019;-50
2022/10/22 02:49:15;;;;;;;66.35;62.65;;;;;;;15.01;67.91;101952.56;5016664;28;102566;-50
2022/10/22 02:51:43;;;;;;;69.60;65.88;;;;;;;15.00;68.54;101952.81;5015981;28;102461;-50
2022/10/22 02:54:09;;;;;;;68.00;64.28;;;;;;;15.00;68.10;101955.56;5017756;28;102013;-50
2022/10/22 02:56:36;;;;;;;63.33;59.78;;;;;;;15.00;68.19;101961.88;5015847;28;104044;-50
2022/10/22 02:59:02;;;;;;;65.00;61.50;;;;;;;15.01;68.40;101955.28;5016637;28;102772;-50
2022/10/22 03:01:29;;;;;;;65.75;62.08;;;;;;;15.00;68.30;101945.44;5009407;28;102041;-50
2022/10/22 03:03:56;;;;;;;64.78;61.20;;;;;;;14.99;68.43;101951.16;5007981;28;102188;-50
2022/10/22 03:06:24;;;;;;;65.43;61.60;;;;;;;15.00;68.46;101956.41;5009655;28;103978;-50
2022/10/22 03:08:50;;;;;;;66.82;63.15;;;;;;;14.99;68.50;101952.00;5016666;28;102450;-50
2022/10/22 03:11:16;;;;;;;68.20;64.35;;;;;;;15.00;68.08;101948.19;5014022;28;102168;-50
2022/10/22 03:13:45;;;;;;;69.30;65.57;;;;;;;15.00;68.56;101950.91;5016994;28;102295;-50
2022/10/22 03:16:12;;;;;;;65.22;61.58;;;;;;;15.00;68.28;101950.06;5005678;28;104779;-50
2022/10/22 03:18:38;;;;;;;64.78;61.28;;;;;;;15.00;68.38;101950.91;5008504;28;101981;-50
2022/10/22 03:21:10;;;;;;;63.85;60.38;;;;;;;14.99;68.09;101943.75;5015489;28;101904;-50
2022/10/22 03:23:41;;;;;;;65.18;61.65;;;;;;;14.99;68.18;101943.75;5008308;28;102503;-50
2022/10/22 03:26:09;;;;;;;62.28;58.85;;;;;;;14.99;68.63;101943.75;4995720;28;103949;-50
2022/10/22 03:28:38;;;;;;;70.65;66.88;;;;;;;14.99;68.18;101932.81;5010127;28;102046;-50
2022/10/22 03:31:05;;;;;;;66.53;62.80;;;;;;;14.99;68.34;101932.81;5013849;28;102283;-50
2022/10/22 03:33:32;;;;;;;65.25;61.72;;;;;;;14.99;68.06;101932.81;5016577;28;102465;-50
2022/10/22 03:36:00;;;;;;;62.30;58.85;;;;;;;14.98;68.33;101933.91;5015267;28;104032;-50
2022/10/22 03:38:26;;;;;;;62.50;59.10;;;;;;;14.99;68.33;101926.50;5015204;28;102476;-50
2022/10/22 03:40:54;;;;;;;65.43;61.85;;;;;;;14.99;68.13;101931.97;4999399;27;102190;-50
2022/10/22 03:43:21;;;;;;;68.72;64.95;;;;;;;15.00;68.28;101933.63;5014636;28;102413;-50
2022/10/22 03:45:48;;;;;;;67.53;63.88;;;;;;;14.99;68.39;101932.81;5012511;28;103968;-50
2022/10/22 03:48:14;;;;;;;63.53;60.03;;;;;;;14.99;68.49;101927.31;5015792;28;102442;-50
2022/10/22 03:50:41;;;;;;;65.38;61.88;;;;;;;15.00;68.39;101928.13;5014709;28;102394;-50
2022/10/22 03:53:09;;;;;;;64.35;60.85;;;;;;;15.00;68.23;101919.91;4996408;28;102236;-50
2022/10/22 03:55:37;;;;;;;73.32;69.30;;;;;;;14.98;68.22;101928.41;5004757;28;104312;-50
2022/10/22 03:58:05;;;;;;;68.30;64.57;;;;;;;14.97;68.23;101924.03;5010576;28;102169;-50
2022/10/22 04:00:31;;;;;;;66.78;63.22;;;;;;;15.00;68.28;101920.75;5013191;28;102122;-50
2022/10/22 04:02:58;;;;;;;63.35;59.95;;;;;;;15.00;68.39;101926.25;5024123;27;103802;-50
2022/10/22 04:05:24;;;;;;;60.05;56.80;;;;;;;14.97;68.61;101913.06;5012764;28;103895;-50
2022/10/22 04:07:51;;;;;;;60.20;56.92;;;;;;;14.99;68.25;101910.88;5015125;28;102768;-50
2022/10/22 04:10:18;;;;;;;68.65;64.95;;;;;;;14.99;68.13;101899.91;5015232;28;102813;-50
2022/10/22 04:12:47;;;;;;;63.03;59.55;;;;;;;14.98;68.41;101898.25;5016115;28;102471;-50
2022/10/22 04:15:15;;;;;;;68.30;64.57;;;;;;;14.99;68.22;101882.63;5011830;28;107922;-51
2022/10/22 04:17:42;;;;;;;68.57;64.88;;;;;;;14.99;68.48;101890.88;4996050;28;101989;-50
2022/10/22 04:20:10;;;;;;;62.65;59.15;;;;;;;14.98;68.30;101881.81;5008133;28;102007;-51
2022/10/22 04:22:38;;;;;;;63.08;59.55;;;;;;;15.00;68.40;101885.13;5010909;28;102181;-50
2022/10/22 04:25:06;;;;;;;67.43;63.75;;;;;;;14.99;68.30;101888.94;4994564;28;103944;-50
2022/10/22 04:27:33;;;;;;;63.75;60.22;;;;;;;15.00;68.35;101895.25;4995150;28;103032;-50
2022/10/22 04:30:00;;;;;;;69.38;65.55;;;;;;;14.99;68.47;101899.09;5009234;28;102290;-50
2022/10/22 04:32:28;;;;;;;64.15;60.63;;;;;;;14.98;68.39;101887.31;4995303;28;102710;-50
2022/10/22 04:34:54;;;;;;;66.45;62.80;;;;;;;14.99;68.45;101885.38;5005203;28;104140;-50
2022/10/22 04:37:21;;;;;;;66.93;63.08;;;;;;;15.00;68.44;101884.28;5010464;28;102728;-50
2022/10/22 04:39:48;;;;;;;70.75;66.82;;;;;;;14.99;68.44;101888.94;5010233;28;102323;-50
2022/10/22 04:42:14;;;;;;;70.53;66.63;;;;;;;14.99;68.15;101883.47;5013769;28;102469;-50
2022/10/22 04:44:41;;;;;;;68.07;64.22;;;;;;;14.99;68.39;101880.72;5012000;28;103995;-50
2022/10/22 04:47:07;;;;;;;65.30;61.63;;;;;;;15.00;68.08;101879.66;5013797;28;102258;-50
2022/10/22 04:49:40;;;;;;;69.03;65.20;;;;;;;15.00;68.34;101879.66;5008728;27;102329;-50
2022/10/22 04:52:07;;;;;;;63.35;59.80;;;;;;;15.00;68.45;101878.78;5006270;28;102231;-50
2022/10/22 04:54:36;;;;;;;64.70;61.00;;;;;;;14.99;68.42;101882.63;5013288;28;103912;-51
2022/10/22 04:57:03;;;;;;;64.70;61.10;;;;;;;15.00;68.40;101889.75;5012648;28;102758;-50
2022/10/22 04:59:29;;;;;;;66.68;62.90;;;;;;;15.01;68.42;101886.75;4998712;28;102367;-50
2022/10/22 05:01:56;;;;;;;63.72;60.15;;;;;;;15.01;68.18;101891.44;5002141;28;102371;-50
2022/10/22 05:04:22;;;;;;;66.55;62.80;;;;;;;15.00;68.13;101884.28;4996084;28;104790;-50
2022/10/22 05:06:51;;;;;;;65.47;61.78;;;;;;;15.00;68.22;101890.59;5005335;28;102928;-50
2022/10/22 05:09:19;;;;;;;69.80;65.80;;;;;;;14.99;68.26;101888.94;5005574;28;102346;-50
2022/10/22 05:11:48;;;;;;;71.73;67.70;;;;;;;15.00;68.50;101885.13;5014001;28;102332;-50
2022/10/22 05:14:16;;;;;;;67.18;63.35;;;;;;;14.99;67.93;101894.44;4993617;28;103872;-50
2022/10/22 05:16:44;;;;;;;66.53;62.72;;;;;;;14.99;68.25;101897.16;5010416;28;102243;-50
2022/10/22 05:19:16;;;;;;;71.20;67.28;;;;;;;14.99;68.38;101894.44;5013546;28;102308;-50
2022/10/22 05:21:44;;;;;;;67.65;63.58;;;;;;;14.98;68.44;101887.31;5014498;28;102527;-50
2022/10/22 05:24:13;;;;;;;66.10;62.38;;;;;;;14.99;68.37;101894.44;5032000;27;103910;-51
2022/10/22 05:26:39;;;;;;;70.03;65.80;;;;;;;15.01;68.12;101889.50;5037423;27;102052;-50
2022/10/22 05:29:06;;;;;;;68.55;64.72;;;;;;;15.00;68.14;101887.88;5036051;27;102077;-50
2022/10/22 05:31:33;;;;;;;67.95;64.13;;;;;;;15.01;68.19;101885.94;5037851;27;102131;-50
2022/10/22 05:33:59;;;;;;;70.63;66.60;;;;;;;15.02;68.36;101885.66;5037564;27;103782;-50
2022/10/22 05:36:27;;;;;;;67.07;63.15;;;;;;;15.01;68.07;101892.25;5026228;27;102322;-50
2022/10/22 05:38:53;;;;;;;63.65;59.95;;;;;;;15.02;68.21;101893.88;5018700;28;101928;-50
2022/10/22 05:41:24;;;;;;;65.72;61.97;;;;;;;15.02;68.49;101885.66;5033802;28;102180;-51
2022/10/22 05:43:54;;;;;;;70.28;66.35;;;;;;;15.03;68.06;101884.56;5016909;28;103872;-50
2022/10/22 05:46:23;;;;;;;66.35;62.53;;;;;;;15.02;68.23;101876.63;5032287;27;102401;-50
2022/10/22 05:48:52;;;;;;;68.28;64.18;;;;;;;15.03;68.35;101884.56;5018685;27;102239;-50
2022/10/22 05:51:21;;;;;;;68.63;64.75;;;;;;;15.03;68.26;101876.34;5032226;27;102497;-50
2022/10/22 05:53:53;;;;;;;76.97;72.78;;;;;;;15.03;68.27;101881.81;5037169;27;104007;-50
2022/10/22 05:56:21;;;;;;;69.60;65.70;;;;;;;15.04;68.31;101880.75;5033863;27;102146;-50
2022/10/22 05:58:48;;;;;;;68.93;64.77;;;;;;;15.04;68.33;101880.75;5015687;27;102318;-50
2022/10/22 06:01:17;;;;;;;64.10;60.42;;;;;;;15.03;68.59;101884.56;5006296;27;102187;-50
2022/10/22 06:03:45;;;;;;;68.30;64.15;;;;;;;15.05;68.32;101887.03;5011094;28;103958;-50
2022/10/22 06:06:18;;;;;;;73.63;69.57;;;;;;;15.06;68.31;101883.19;5015466;28;102427;-50
2022/10/22 06:08:52;;;;;;;71.55;67.55;;;;;;;15.04;68.23;101885.41;5005580;28;101993;-51
2022/10/22 06:11:21;;;;;;;65.07;61.47;;;;;;;15.03;68.45;101878.25;5009030;28;102232;-50
2022/10/22 06:13:49;;;;;;;70.32;66.28;;;;;;;15.06;68.33;101886.75;5010723;28;104118;-50
2022/10/22 06:16:15;;;;;;;66.60;62.78;;;;;;;15.03;68.22;101883.75;5028824;27;102320;-51
2022/10/22 06:18:42;;;;;;;68.60;64.47;;;;;;;15.05;68.24;101887.03;5024775;27;102195;-50
2022/10/22 06:21:12;;;;;;;70.15;66.22;;;;;;;15.04;68.51;101886.22;5025498;27;102237;-50
2022/10/22 06:23:41;;;;;;;65.88;62.15;;;;;;;15.06;68.47;101888.69;5028120;28;103886;-50
2022/10/22 06:26:08;;;;;;;67.15;63.22;;;;;;;15.06;68.30;101884.00;5023527;27;102077;-50
2022/10/22 06:28:38;;;;;;;65.10;61.30;;;;;;;15.05;68.74;101890.59;5034492;27;102330;-51
2022/10/22 06:31:04;;;;;;;;;;;;;;;15.06;68.69;101894.97;5033074;27;102612;-50
2022/10/22 06:33:33;;;;;;;88.35;83.55;;;;;;;15.06;68.62;101889.50;5015957;27;103892;-50
2022/10/22 06:36:04;;;;;;;72.90;68.72;;;;;;;15.06;68.65;101894.97;5031756;27;102236;-50
2022/10/22 06:38:32;;;;;;;67.55;63.58;;;;;;;15.07;68.63;101895.81;5020978;28;102042;-50
2022/10/22 06:41:02;;;;;;;66.57;62.78;;;;;;;15.07;68.92;101895.81;5026306;27;102155;-51
2022/10/22 06:43:29;;;;;;;66.97;63.10;;;;;;;15.08;68.94;101898.28;5016172;27;103925;-50
2022/10/22 06:45:59;;;;;;;65.70;61.90;;;;;;;15.06;68.55;101889.50;5016187;28;102259;-51
2022/10/22 06:48:26;;;;;;;67.97;63.95;;;;;;;15.07;68.81;101896.66;5012552;28;102194;-50
2022/10/22 06:50:54;;;;;;;67.60;63.70;;;;;;;15.08;68.89;101909.25;5024191;27;102332;-51
2022/10/22 06:53:21;;;;;;;74.85;70.50;;;;;;;15.08;68.62;101906.50;5029231;27;104021;-50
2022/10/22 06:55:48;;;;;;;67.70;63.65;;;;;;;15.08;68.79;101901.03;4996659;28;102372;-50
2022/10/22 06:58:14;;;;;;;65.28;61.35;;;;;;;15.08;68.94;101898.28;5004824;28;102218;-50
2022/10/22 07:00:41;;;;;;;71.35;67.03;;;;;;;15.08;68.91;101892.81;5021160;28;102231;-51
2022/10/22 07:03:11;;;;;;;68.78;64.80;;;;;;;15.08;69.15;101900.22;5032737;27;104824;-50
2022/10/22 07:05:39;;;;;;;67.95;64.03;;;;;;;15.09;68.54;101905.41;5026893;27;102202;-50
2022/10/22 07:08:06;;;;;;;67.03;63.28;;;;;;;15.08;68.68;101914.72;5025273;28;102293;-51
2022/10/22 07:10:33;;;;;;;66.88;63.00;;;;;;;15.08;69.11;101909.25;5037814;27;102349;-50
2022/10/22 07:12:59;;;;;;;66.90;63.03;;;;;;;15.07;69.15;101896.66;5035019;27;103896;-50
2022/10/22 07:15:30;;;;;;;63.80;60.20;;;;;;;15.08;68.92;101891.97;5035862;27;102282;-51
2022/10/22 07:17:57;;;;;;;68.38;64.55;;;;;;;15.07;68.71;101884.84;5035999;27;102014;-50
2022/10/22 07:20:25;;;;;;;61.58;58.05;;;;;;;15.08;68.57;101887.31;5036703;27;102192;-51
2022/10/22 07:22:52;;;;;;;66.20;62.28;;;;;;;15.08;68.91;101881.84;5035933;27;103904;-51
2022/10/22 07:25:18;;;;;;;70.55;66.68;;;;;;;15.08;68.77;101879.09;5036836;27;102466;-51
2022/10/22 07:27:45;;;;;;;64.65;60.85;;;;;;;15.09;68.75;101886.22;5035725;27;102109;-51
2022/10/22 07:30:12;;;;;;;60.30;56.97;;;;;;;15.08;68.81;101876.34;5037135;27;102187;-51
2022/10/22 07:32:39;;;;;;;59.85;56.42;;;;;;;15.07;68.69;101866.50;5030525;27;104830;-51
2022/10/22 07:35:06;;;;;;;66.13;62.35;;;;;;;15.09;68.84;101861.53;5028921;27;102751;-51
2022/10/22 07:37:36;;;;;;;64.97;61.22;;;;;;;15.08;68.68;101870.88;5018111;28;102908;-51
2022/10/22 07:40:03;;;;;;;61.50;57.78;;;;;;;15.09;68.66;101872.50;5028465;27;102488;-50
2022/10/22 07:42:29;;;;;;;63.47;60.00;;;;;;;15.10;68.63;101865.91;5014210;27;103901;-50
2022/10/22 07:44:56;;;;;;;63.10;59.58;;;;;;;15.10;68.73;101859.63;5020439;28;102281;-50
2022/10/22 07:47:23;;;;;;;64.60;60.60;;;;;;;15.09;68.66;101861.53;5016724;28;102350;-50
2022/10/22 07:49:51;;;;;;;59.58;56.08;;;;;;;15.09;68.55;101853.31;5015892;28;102379;-50
2022/10/22 07:52:17;;;;;;;64.47;61.00;;;;;;;15.09;68.51;101844.28;5014573;27;104136;-50
2022/10/22 07:54:45;;;;;;;59.28;55.97;;;;;;;15.09;68.66;101845.09;5023175;28;103160;-50
2022/10/22 07:57:11;;;;;;;70.55;66.68;;;;;;;15.09;68.38;101856.06;5022456;27;102132;-50
2022/10/22 07:59:38;;;;;;;67.60;63.83;;;;;;;15.10;68.40;101852.22;5021258;27;102221;-50
2022/10/22 08:02:05;;;;;;;67.05;63.38;;;;;;;15.10;68.34;101846.72;5025266;28;104053;-50
2022/10/22 08:04:31;;;;;;;63.90;60.50;;;;;;;15.10;68.23;101843.97;5024235;28;102479;-50
2022/10/22 08:06:59;;;;;;;68.00;64.20;;;;;;;15.11;68.43;101842.91;5028129;28;103120;-50
2022/10/22 08:09:25;;;;;;;60.90;57.65;;;;;;;15.11;68.12;101844.81;5025477;27;102414;-50
2022/10/22 08:11:53;;;;;;;61.42;58.17;;;;;;;15.10;68.43;101841.25;5023944;27;103843;-51
2022/10/22 08:14:20;;;;;;;62.03;58.40;;;;;;;15.09;68.17;101838.78;5021255;28;102224;-50
2022/10/22 08:16:47;;;;;;;63.03;59.53;;;;;;;15.08;68.16;101840.72;5020763;27;102722;-50
2022/10/22 08:19:17;;;;;;;61.35;58.08;;;;;;;15.10;68.28;101841.25;5024180;28;103590;-50
2022/10/22 08:21:46;;;;;;;63.70;60.30;;;;;;;15.10;68.03;101840.41;5026330;27;108148;-50
2022/10/22 08:24:13;;;;;;;60.78;57.47;;;;;;;15.12;68.13;101841.81;5023114;27;102489;-51
2022/10/22 08:26:40;;;;;;;60.03;56.78;;;;;;;15.11;67.89;101837.41;5034731;27;102514;-50
2022/10/22 08:29:09;;;;;;;58.78;55.55;;;;;;;15.12;67.50;101840.97;5036094;27;102233;-50
2022/10/22 08:31:35;;;;;;;60.70;57.10;;;;;;;15.11;67.65;101840.16;5032185;27;104169;-50
2022/10/22 08:34:04;;;;;;;59.47;55.95;;;;;;;15.11;67.54;101842.91;5014844;28;102161;-50
2022/10/22 08:36:31;;;;;;;65.97;62.05;;;;;;;15.12;67.55;101839.06;5013933;28;102088;-50
2022/10/22 08:38:58;;;;;;;63.65;60.25;;;;;;;15.13;67.73;101832.47;5007144;28;102562;-50
2022/10/22 08:41:25;;;;;;;63.88;60.45;;;;;;;15.14;67.97;101836.84;4993915;28;103867;-50
2022/10/22 08:44:25;;;;;;;59.25;56.10;;;;;;;15.14;67.93;101833.28;4994937;28;101964;-51
2022/10/22 08:47:11;;;;;;;74.90;70.88;;;;;;;15.16;68.00;101838.50;5010603;28;102379;-50
2022/10/22 08:49:42;;;;;;;65.53;61.97;;;;;;;15.13;68.12;101824.25;5015587;28;102213;-50
2022/10/22 08:52:12;;;;;;;64.97;61.33;;;;;;;15.14;68.30;101830.53;5002371;28;103726;-50
2022/10/22 08:54:48;;;;;;;66.38;62.55;;;;;;;15.14;68.04;101831.38;5009502;28;102413;-50
2022/10/22 08:57:45;;;;;;;64.53;61.05;;;;;;;15.11;68.12;101831.94;5013613;28;101992;-50
2022/10/22 09:00:19;;;;;;;66.35;62.90;;;;;;;15.12;68.25;101819.88;5014383;28;101993;-50
2022/10/22 09:02:58;;;;;;;61.65;58.25;;;;;;;15.14;68.05;101814.91;5000828;28;103873;-50
2022/10/22 09:05:38;;;;;;;66.65;63.15;;;;;;;15.14;67.72;101812.16;4996404;28;102405;-51
2022/10/22 09:08:10;;;;;;;66.57;63.03;;;;;;;15.14;67.78;101803.94;4994388;28;101963;-51
2022/10/22 09:10:42;;;;;;;60.20;56.75;;;;;;;15.13;67.86;101802.31;5013895;28;102133;-51
2022/10/22 09:13:12;;;;;;;61.67;58.47;;;;;;;15.11;67.72;101804.53;4997253;28;104172;-50
2022/10/22 09:15:40;;;;;;;61.10;57.80;;;;;;;15.12;67.66;101800.69;5001083;28;102206;-50
2022/10/22 09:18:22;;;;;;;62.10;58.60;;;;;;;15.14;66.86;101800.38;5006845;28;101967;-51
2022/10/22 09:20:55;;;;;;;59.47;56.17;;;;;;;15.14;66.57;101803.13;4997360;28;102003;-50
2022/10/22 09:23:30;;;;;;;61.80;58.58;;;;;;;15.14;66.66;101798.47;5013732;28;104016;-50
2022/10/22 09:25:57;;;;;;;71.95;67.63;;;;;;;15.17;66.96;101796.28;5014241;28;102243;-50
2022/10/22 09:28:24;;;;;;;60.33;56.78;;;;;;;15.17;66.43;101796.28;5013962;28;102112;-50
2022/10/22 09:30:51;;;;;;;65.20;61.67;;;;;;;15.18;66.99;101792.44;5014316;28;102507;-51
2022/10/22 09:33:23;;;;;;;64.10;60.43;;;;;;;15.16;66.87;101795.47;5014101;28;103947;-50
2022/10/22 09:35:52;;;;;;;62.50;59.15;;;;;;;15.14;67.36;101792.16;5014217;28;102201;-50
2022/10/22 09:38:24;;;;;;;61.92;58.67;;;;;;;15.14;67.22;101801.19;5013580;28;102157;-50
2022/10/22 09:40:53;;;;;;;61.78;58.55;;;;;;;15.14;67.81;101792.16;5016179;28;102539;-50
2022/10/22 09:43:20;;;;;;;60.83;57.70;;;;;;;15.17;67.46;101799.03;5013425;28;103696;-50
2022/10/22 09:45:47;;;;;;;66.57;62.88;;;;;;;15.15;67.34;101793.81;5031128;27;102350;-50
2022/10/22 09:48:25;;;;;;;62.72;59.25;;;;;;;15.14;67.60;101792.16;5033400;27;102117;-50
2022/10/22 09:50:58;;;;;;;63.67;60.33;;;;;;;15.14;67.62;101782.00;5034455;27;102072;-50
2022/10/22 09:53:27;;;;;;;61.78;58.60;;;;;;;15.16;67.29;101761.75;5033158;27;103910;-50
2022/10/22 09:55:57;;;;;;;55.88;52.97;;;;;;;15.15;67.35;101766.41;5034004;27;102419;-50
2022/10/22 09:58:25;;;;;;;65.78;62.30;;;;;;;15.13;67.38;101752.94;5033640;27;102251;-51
2022/10/22 10:00:54;;;;;;;67.25;63.53;;;;;;;15.13;67.24;101763.94;5034756;27;102314;-50
2022/10/22 10:03:26;;;;;;;59.58;56.42;;;;;;;15.16;67.58;101759.00;5012591;28;105068;-50
2022/10/22 10:05:54;;;;;;;62.03;58.85;;;;;;;15.14;67.41;101762.81;5033899;27;103078;-50
2022/10/22 10:08:22;;;;;;;66.88;63.25;;;;;;;15.16;67.45;101761.75;5033293;27;102464;-50
2022/10/22 10:10:52;;;;;;;63.92;60.53;;;;;;;15.14;67.57;101746.38;5035550;27;102165;-50
2022/10/22 10:13:45;;;;;;;62.90;59.60;;;;;;;15.17;67.18;101746.94;5036241;27;103872;-50
2022/10/22 10:16:26;;;;;;;63.08;59.55;;;;;;;15.14;67.60;101742.81;5037084;27;102336;-50
2022/10/22 10:19:10;;;;;;;59.08;55.95;;;;;;;15.14;67.26;101746.38;5019187;28;101904;-50
2022/10/22 10:21:46;;;;;;;61.83;58.33;;;;;;;15.15;67.72;101739.00;5034737;27;102865;-51
2022/10/22 10:24:19;;;;;;;65.90;62.45;;;;;;;15.16;67.36;101745.28;5028788;27;104059;-50
2022/10/22 10:26:57;;;;;;;60.75;57.50;;;;;;;15.16;67.38;101740.63;5031951;27;102097;-50
2022/10/22 10:29:38;;;;;;;59.63;56.58;;;;;;;15.15;67.52;101730.75;5027460;27;102539;-50
2022/10/22 10:32:24;;;;;;;70.55;66.90;;;;;;;15.16;67.45;101720.63;5021697;28;103535;-50
2022/10/22 10:35:02;;;;;;;61.92;58.65;;;;;;;15.16;67.38;101717.88;5002134;28;107841;-50
2022/10/22 10:37:35;;;;;;;57.90;54.63;;;;;;;15.16;67.43;101704.16;5004294;28;102172;-50
2022/10/22 10:40:20;;;;;;;63.13;59.80;;;;;;;15.16;67.44;101706.91;5015734;28;102033;-50
2022/10/22 10:42:54;;;;;;;64.18;60.67;;;;;;;15.17;67.74;101703.88;5014000;28;102699;-50
2022/10/22 10:45:29;;;;;;;60.17;57.08;;;;;;;15.14;67.69;101721.69;5010350;28;103911;-51
2022/10/22 10:48:18;;;;;;;62.65;59.25;;;;;;;15.16;67.67;101709.66;5012708;28;103263;-50
2022/10/22 10:50:55;;;;;;;63.38;60.03;;;;;;;15.17;68.07;101719.50;5002572;28;102570;-50
2022/10/22 10:53:32;;;;;;;60.55;57.25;;;;;;;15.15;67.77;101706.09;5007632;28;102162;-50
2022/10/22 10:56:04;;;;;;;62.65;59.28;;;;;;;15.14;67.91;101699.75;5015350;28;104024;-50
2022/10/22 10:58:42;;;;;;;59.88;56.65;;;;;;;15.14;67.88;101699.75;5016350;28;102231;-50
2022/10/22 11:01:23;;;;;;;64.50;61.20;;;;;;;15.17;67.53;101697.56;5016008;28;102355;-50
2022/10/22 11:04:19;;;;;;;64.18;60.83;;;;;;;15.15;67.97;101695.13;5012807;28;102105;-50
2022/10/22 11:06:51;;;;;;;64.25;60.95;;;;;;;15.16;67.74;101693.19;5009222;28;103955;-50
2022/10/22 11:09:23;;;;;;;66.28;62.80;;;;;;;15.14;67.99;101677.81;5015724;28;102367;-50
2022/10/22 11:11:55;;;;;;;66.65;63.03;;;;;;;15.16;67.89;101690.44;5015626;28;102323;-51
2022/10/22 11:14:29;;;;;;;64.68;60.97;;;;;;;15.16;67.81;101682.22;5007125;28;102672;-50